sensor_id;sensor_type;location;lat;lon;timestamp;P1;durP1;ratioP1;P2;durP2;ratioP2
49834;SDS011;35729;52.090;13.162;2023-07-16T00:01:44;12.88;;;9.60;;
49834;SDS011;35729;52.090;13.162;2023-07-16T00:04:19;9.30;;;7.35;;
49834;SDS011;35729;52.090;13.162;2023-07-16T00:06:47;9.23;;;8.32;;
49834;SDS011;35729;52.090;13.162;2023-07-16T00:09:16;9.13;;;8.23;;
49834;SDS011;35729;52.090;13.162;2023-07-16T00:11:44;7.25;;;6.55;;
49834;SDS011;35729;52.090;13.162;2023-07-16T00:14:15;8.10;;;6.75;;
49834;SDS011;35729;52.090;13.162;2023-07-16T00:16:44;8.93;;;7.20;;
49834;SDS011;35729;52.090;13.162;2023-07-16T00:19:14;9.15;;;7.35;;
49834;SDS011;35729;52.090;13.162;2023-07-16T00:21:43;8.10;;;6.88;;
49834;SDS011;35729;52.090;13.162;2023-07-16T00:24:11;7.72;;;6.55;;
49834;SDS011;35729;52.090;13.162;2023-07-16T00:26:40;8.27;;;6.55;;
49834;SDS011;35729;52.090;13.162;2023-07-16T00:29:08;8.65;;;6.63;;
49834;SDS011;35729;52.090;13.162;2023-07-16T00:31:40;7.10;;;6.40;;
49834;SDS011;35729;52.090;13.162;2023-07-16T00:34:08;9.70;;;6.82;;
49834;SDS011;35729;52.090;13.162;2023-07-16T00:36:38;9.43;;;7.50;;
49834;SDS011;35729;52.090;13.162;2023-07-16T00:39:06;7.55;;;6.75;;
49834;SDS011;35729;52.090;13.162;2023-07-16T00:41:35;6.93;;;5.88;;
49834;SDS011;35729;52.090;13.162;2023-07-16T00:44:03;6.70;;;6.10;;
49834;SDS011;35729;52.090;13.162;2023-07-16T00:46:32;8.38;;;5.40;;
49834;SDS011;35729;52.090;13.162;2023-07-16T00:49:03;8.43;;;6.47;;
49834;SDS011;35729;52.090;13.162;2023-07-16T00:51:32;6.55;;;5.82;;
49834;SDS011;35729;52.090;13.162;2023-07-16T00:54:00;7.00;;;5.65;;
49834;SDS011;35729;52.090;13.162;2023-07-16T00:56:29;8.00;;;5.70;;
49834;SDS011;35729;52.090;13.162;2023-07-16T00:58:58;21.73;;;6.32;;
49834;SDS011;35729;52.090;13.162;2023-07-16T01:01:26;8.52;;;5.95;;
49834;SDS011;35729;52.090;13.162;2023-07-16T01:03:55;6.53;;;5.78;;
49834;SDS011;35729;52.090;13.162;2023-07-16T01:06:28;8.88;;;5.70;;
49834;SDS011;35729;52.090;13.162;2023-07-16T01:09:02;9.32;;;4.85;;
49834;SDS011;35729;52.090;13.162;2023-07-16T01:11:34;6.55;;;5.03;;
49834;SDS011;35729;52.090;13.162;2023-07-16T01:14:03;8.10;;;4.55;;
49834;SDS011;35729;52.090;13.162;2023-07-16T01:16:34;6.07;;;4.75;;
49834;SDS011;35729;52.090;13.162;2023-07-16T01:19:03;4.97;;;4.30;;
49834;SDS011;35729;52.090;13.162;2023-07-16T01:21:35;7.82;;;4.28;;
49834;SDS011;35729;52.090;13.162;2023-07-16T01:24:19;5.88;;;4.25;;
49834;SDS011;35729;52.090;13.162;2023-07-16T01:27:17;5.75;;;4.15;;
49834;SDS011;35729;52.090;13.162;2023-07-16T01:30:00;4.43;;;3.95;;
49834;SDS011;35729;52.090;13.162;2023-07-16T01:32:30;4.72;;;4.18;;
49834;SDS011;35729;52.090;13.162;2023-07-16T01:35:01;5.65;;;4.53;;
49834;SDS011;35729;52.090;13.162;2023-07-16T01:37:30;5.28;;;4.78;;
49834;SDS011;35729;52.090;13.162;2023-07-16T01:39:59;6.47;;;5.43;;
49834;SDS011;35729;52.090;13.162;2023-07-16T01:42:28;6.18;;;5.18;;
49834;SDS011;35729;52.090;13.162;2023-07-16T01:44:59;6.97;;;5.75;;
49834;SDS011;35729;52.090;13.162;2023-07-16T01:47:30;8.00;;;5.85;;
49834;SDS011;35729;52.090;13.162;2023-07-16T01:50:07;7.03;;;5.95;;
49834;SDS011;35729;52.090;13.162;2023-07-16T01:52:33;7.32;;;6.10;;
49834;SDS011;35729;52.090;13.162;2023-07-16T01:55:02;8.95;;;6.13;;
49834;SDS011;35729;52.090;13.162;2023-07-16T01:57:31;8.05;;;6.80;;
49834;SDS011;35729;52.090;13.162;2023-07-16T02:00:02;11.13;;;6.88;;
49834;SDS011;35729;52.090;13.162;2023-07-16T02:02:33;8.77;;;7.10;;
49834;SDS011;35729;52.090;13.162;2023-07-16T02:05:01;7.85;;;6.68;;
49834;SDS011;35729;52.090;13.162;2023-07-16T02:07:30;8.27;;;7.05;;
49834;SDS011;35729;52.090;13.162;2023-07-16T02:09:59;9.73;;;7.30;;
49834;SDS011;35729;52.090;13.162;2023-07-16T02:12:27;9.73;;;7.35;;
49834;SDS011;35729;52.090;13.162;2023-07-16T02:14:56;13.20;;;7.25;;
49834;SDS011;35729;52.090;13.162;2023-07-16T02:17:27;8.00;;;7.30;;
49834;SDS011;35729;52.090;13.162;2023-07-16T02:19:56;9.52;;;7.63;;
49834;SDS011;35729;52.090;13.162;2023-07-16T02:22:24;9.13;;;7.40;;
49834;SDS011;35729;52.090;13.162;2023-07-16T02:24:53;9.70;;;8.38;;
49834;SDS011;35729;52.090;13.162;2023-07-16T02:27:21;8.50;;;7.70;;
49834;SDS011;35729;52.090;13.162;2023-07-16T02:29:50;8.23;;;6.88;;
49834;SDS011;35729;52.090;13.162;2023-07-16T02:32:18;17.17;;;7.90;;
49834;SDS011;35729;52.090;13.162;2023-07-16T02:34:49;9.48;;;7.72;;
49834;SDS011;35729;52.090;13.162;2023-07-16T02:37:18;11.10;;;7.60;;
49834;SDS011;35729;52.090;13.162;2023-07-16T02:39:46;9.57;;;7.70;;
49834;SDS011;35729;52.090;13.162;2023-07-16T02:42:15;11.23;;;8.60;;
49834;SDS011;35729;52.090;13.162;2023-07-16T02:44:43;9.85;;;8.13;;
49834;SDS011;35729;52.090;13.162;2023-07-16T02:47:12;10.38;;;8.13;;
49834;SDS011;35729;52.090;13.162;2023-07-16T02:49:40;8.30;;;7.50;;
49834;SDS011;35729;52.090;13.162;2023-07-16T02:52:11;9.27;;;7.95;;
49834;SDS011;35729;52.090;13.162;2023-07-16T02:54:40;10.30;;;8.07;;
49834;SDS011;35729;52.090;13.162;2023-07-16T02:57:08;9.15;;;7.80;;
49834;SDS011;35729;52.090;13.162;2023-07-16T02:59:37;9.77;;;8.10;;
49834;SDS011;35729;52.090;13.162;2023-07-16T03:02:05;12.25;;;7.72;;
49834;SDS011;35729;52.090;13.162;2023-07-16T03:04:34;9.07;;;8.15;;
49834;SDS011;35729;52.090;13.162;2023-07-16T03:07:03;9.88;;;7.93;;
49834;SDS011;35729;52.090;13.162;2023-07-16T03:09:34;11.90;;;10.38;;
49834;SDS011;35729;52.090;13.162;2023-07-16T03:12:03;19.05;;;14.00;;
49834;SDS011;35729;52.090;13.162;2023-07-16T03:14:32;14.63;;;11.63;;
49834;SDS011;35729;52.090;13.162;2023-07-16T03:17:01;10.45;;;9.00;;
49834;SDS011;35729;52.090;13.162;2023-07-16T03:19:31;10.38;;;7.60;;
49834;SDS011;35729;52.090;13.162;2023-07-16T03:22:00;8.25;;;7.45;;
49834;SDS011;35729;52.090;13.162;2023-07-16T03:24:29;9.90;;;7.10;;
49834;SDS011;35729;52.090;13.162;2023-07-16T03:27:00;9.68;;;6.63;;
49834;SDS011;35729;52.090;13.162;2023-07-16T03:29:28;8.15;;;6.60;;
49834;SDS011;35729;52.090;13.162;2023-07-16T03:32:04;8.95;;;6.00;;
49834;SDS011;35729;52.090;13.162;2023-07-16T03:34:33;7.57;;;6.05;;
49834;SDS011;35729;52.090;13.162;2023-07-16T03:37:02;6.45;;;5.50;;
49834;SDS011;35729;52.090;13.162;2023-07-16T03:39:30;7.40;;;5.43;;
49834;SDS011;35729;52.090;13.162;2023-07-16T03:42:01;5.75;;;5.13;;
49834;SDS011;35729;52.090;13.162;2023-07-16T03:44:30;6.95;;;5.45;;
49834;SDS011;35729;52.090;13.162;2023-07-16T03:46:58;8.68;;;5.07;;
49834;SDS011;35729;52.090;13.162;2023-07-16T03:49:27;6.00;;;5.18;;
49834;SDS011;35729;52.090;13.162;2023-07-16T03:51:55;6.70;;;5.05;;
49834;SDS011;35729;52.090;13.162;2023-07-16T03:54:24;5.95;;;4.88;;
49834;SDS011;35729;52.090;13.162;2023-07-16T03:56:52;6.00;;;5.00;;
49834;SDS011;35729;52.090;13.162;2023-07-16T03:59:23;7.90;;;4.28;;
49834;SDS011;35729;52.090;13.162;2023-07-16T04:01:52;5.93;;;4.82;;
49834;SDS011;35729;52.090;13.162;2023-07-16T04:04:20;5.43;;;4.50;;
49834;SDS011;35729;52.090;13.162;2023-07-16T04:06:49;8.43;;;3.97;;
49834;SDS011;35729;52.090;13.162;2023-07-16T04:09:17;4.63;;;4.22;;
49834;SDS011;35729;52.090;13.162;2023-07-16T04:11:45;4.43;;;4.03;;
49834;SDS011;35729;52.090;13.162;2023-07-16T04:14:14;4.70;;;4.30;;
49834;SDS011;35729;52.090;13.162;2023-07-16T04:16:45;8.05;;;4.20;;
49834;SDS011;35729;52.090;13.162;2023-07-16T04:19:13;4.32;;;3.78;;
49834;SDS011;35729;52.090;13.162;2023-07-16T04:21:42;5.47;;;4.25;;
49834;SDS011;35729;52.090;13.162;2023-07-16T04:24:10;5.05;;;3.95;;
49834;SDS011;35729;52.090;13.162;2023-07-16T04:26:39;6.00;;;3.90;;
49834;SDS011;35729;52.090;13.162;2023-07-16T04:29:07;7.20;;;4.20;;
49834;SDS011;35729;52.090;13.162;2023-07-16T04:31:35;5.78;;;4.10;;
49834;SDS011;35729;52.090;13.162;2023-07-16T04:34:06;4.88;;;3.70;;
49834;SDS011;35729;52.090;13.162;2023-07-16T04:36:35;6.60;;;3.67;;
49834;SDS011;35729;52.090;13.162;2023-07-16T04:39:03;4.53;;;4.03;;
49834;SDS011;35729;52.090;13.162;2023-07-16T04:41:32;5.50;;;4.35;;
49834;SDS011;35729;52.090;13.162;2023-07-16T04:44:00;6.50;;;4.45;;
49834;SDS011;35729;52.090;13.162;2023-07-16T04:46:29;8.60;;;4.40;;
49834;SDS011;35729;52.090;13.162;2023-07-16T04:48:57;6.03;;;4.35;;
49834;SDS011;35729;52.090;13.162;2023-07-16T04:51:29;6.60;;;4.75;;
49834;SDS011;35729;52.090;13.162;2023-07-16T04:53:57;7.15;;;4.57;;
49834;SDS011;35729;52.090;13.162;2023-07-16T04:56:26;4.80;;;4.07;;
49834;SDS011;35729;52.090;13.162;2023-07-16T04:58:54;6.68;;;4.50;;
49834;SDS011;35729;52.090;13.162;2023-07-16T05:01:22;5.88;;;5.32;;
49834;SDS011;35729;52.090;13.162;2023-07-16T05:03:52;6.22;;;5.15;;
49834;SDS011;35729;52.090;13.162;2023-07-16T05:06:20;6.53;;;5.40;;
49834;SDS011;35729;52.090;13.162;2023-07-16T05:08:51;7.05;;;5.32;;
49834;SDS011;35729;52.090;13.162;2023-07-16T05:11:20;8.05;;;5.35;;
49834;SDS011;35729;52.090;13.162;2023-07-16T05:13:48;7.43;;;5.18;;
49834;SDS011;35729;52.090;13.162;2023-07-16T05:16:16;5.63;;;5.13;;
49834;SDS011;35729;52.090;13.162;2023-07-16T05:18:45;5.38;;;4.88;;
49834;SDS011;35729;52.090;13.162;2023-07-16T05:21:20;5.38;;;4.90;;
49834;SDS011;35729;52.090;13.162;2023-07-16T05:23:51;6.18;;;4.57;;
49834;SDS011;35729;52.090;13.162;2023-07-16T05:26:19;7.38;;;4.65;;
49834;SDS011;35729;52.090;13.162;2023-07-16T05:28:48;6.63;;;4.30;;
49834;SDS011;35729;52.090;13.162;2023-07-16T05:31:17;5.78;;;4.18;;
49834;SDS011;35729;52.090;13.162;2023-07-16T05:33:45;7.80;;;4.63;;
49834;SDS011;35729;52.090;13.162;2023-07-16T05:36:13;6.40;;;4.47;;
49834;SDS011;35729;52.090;13.162;2023-07-16T05:38:51;4.65;;;3.78;;
49834;SDS011;35729;52.090;13.162;2023-07-16T05:41:27;5.45;;;4.40;;
49834;SDS011;35729;52.090;13.162;2023-07-16T05:43:55;6.43;;;4.07;;
49834;SDS011;35729;52.090;13.162;2023-07-16T05:46:24;5.90;;;4.18;;
49834;SDS011;35729;52.090;13.162;2023-07-16T05:48:52;4.85;;;4.15;;
49834;SDS011;35729;52.090;13.162;2023-07-16T05:51:20;5.97;;;3.70;;
49834;SDS011;35729;52.090;13.162;2023-07-16T05:53:51;4.65;;;4.07;;
49834;SDS011;35729;52.090;13.162;2023-07-16T05:56:20;5.47;;;4.00;;
49834;SDS011;35729;52.090;13.162;2023-07-16T05:58:48;6.07;;;4.18;;
49834;SDS011;35729;52.090;13.162;2023-07-16T06:01:17;4.70;;;3.88;;
49834;SDS011;35729;52.090;13.162;2023-07-16T06:03:45;4.50;;;3.85;;
49834;SDS011;35729;52.090;13.162;2023-07-16T06:06:20;5.72;;;3.83;;
49834;SDS011;35729;52.090;13.162;2023-07-16T06:08:57;4.45;;;3.72;;
49834;SDS011;35729;52.090;13.162;2023-07-16T06:11:26;5.32;;;3.70;;
49834;SDS011;35729;52.090;13.162;2023-07-16T06:13:54;6.65;;;3.90;;
49834;SDS011;35729;52.090;13.162;2023-07-16T06:16:23;5.43;;;3.80;;
49834;SDS011;35729;52.090;13.162;2023-07-16T06:18:51;5.18;;;3.60;;
49834;SDS011;35729;52.090;13.162;2023-07-16T06:21:20;9.65;;;3.92;;
49834;SDS011;35729;52.090;13.162;2023-07-16T06:23:48;4.85;;;3.45;;
49834;SDS011;35729;52.090;13.162;2023-07-16T06:26:19;4.55;;;3.30;;
49834;SDS011;35729;52.090;13.162;2023-07-16T06:28:47;7.40;;;3.42;;
49834;SDS011;35729;52.090;13.162;2023-07-16T06:31:16;4.18;;;3.25;;
49834;SDS011;35729;52.090;13.162;2023-07-16T06:33:45;4.65;;;2.97;;
49834;SDS011;35729;52.090;13.162;2023-07-16T06:36:16;3.78;;;3.00;;
49834;SDS011;35729;52.090;13.162;2023-07-16T06:38:45;3.85;;;3.17;;
49834;SDS011;35729;52.090;13.162;2023-07-16T06:41:14;4.43;;;3.35;;
49834;SDS011;35729;52.090;13.162;2023-07-16T06:43:45;5.05;;;3.15;;
49834;SDS011;35729;52.090;13.162;2023-07-16T06:46:13;3.55;;;3.25;;
49834;SDS011;35729;52.090;13.162;2023-07-16T06:48:42;6.03;;;2.85;;
49834;SDS011;35729;52.090;13.162;2023-07-16T06:51:10;3.88;;;3.17;;
49834;SDS011;35729;52.090;13.162;2023-07-16T06:53:39;4.30;;;2.80;;
49834;SDS011;35729;52.090;13.162;2023-07-16T06:56:07;5.90;;;2.95;;
49834;SDS011;35729;52.090;13.162;2023-07-16T06:58:35;4.68;;;3.17;;
49834;SDS011;35729;52.090;13.162;2023-07-16T07:01:07;7.45;;;3.10;;
49834;SDS011;35729;52.090;13.162;2023-07-16T07:03:35;7.00;;;2.38;;
49834;SDS011;35729;52.090;13.162;2023-07-16T07:06:04;4.72;;;2.55;;
49834;SDS011;35729;52.090;13.162;2023-07-16T07:08:35;4.03;;;2.67;;
49834;SDS011;35729;52.090;13.162;2023-07-16T07:11:04;3.75;;;2.35;;
49834;SDS011;35729;52.090;13.162;2023-07-16T07:13:32;4.30;;;2.70;;
49834;SDS011;35729;52.090;13.162;2023-07-16T07:16:01;6.00;;;2.50;;
49834;SDS011;35729;52.090;13.162;2023-07-16T07:18:32;3.30;;;2.58;;
49834;SDS011;35729;52.090;13.162;2023-07-16T07:21:00;3.72;;;2.40;;
49834;SDS011;35729;52.090;13.162;2023-07-16T07:23:29;5.80;;;2.47;;
49834;SDS011;35729;52.090;13.162;2023-07-16T07:25:57;4.57;;;2.75;;
49834;SDS011;35729;52.090;13.162;2023-07-16T07:28:26;3.63;;;2.35;;
49834;SDS011;35729;52.090;13.162;2023-07-16T07:30:55;2.45;;;1.85;;
49834;SDS011;35729;52.090;13.162;2023-07-16T07:33:23;4.50;;;2.25;;
49834;SDS011;35729;52.090;13.162;2023-07-16T07:35:55;3.83;;;2.42;;
49834;SDS011;35729;52.090;13.162;2023-07-16T07:38:24;8.02;;;2.42;;
49834;SDS011;35729;52.090;13.162;2023-07-16T07:40:53;3.47;;;1.95;;
49834;SDS011;35729;52.090;13.162;2023-07-16T07:43:22;3.03;;;1.77;;
49834;SDS011;35729;52.090;13.162;2023-07-16T07:45:50;2.80;;;2.38;;
49834;SDS011;35729;52.090;13.162;2023-07-16T07:48:19;4.78;;;2.45;;
49834;SDS011;35729;52.090;13.162;2023-07-16T07:50:47;2.50;;;2.30;;
49834;SDS011;35729;52.090;13.162;2023-07-16T07:53:18;3.85;;;2.20;;
49834;SDS011;35729;52.090;13.162;2023-07-16T07:55:47;2.20;;;1.98;;
49834;SDS011;35729;52.090;13.162;2023-07-16T07:58:15;4.18;;;2.42;;
49834;SDS011;35729;52.090;13.162;2023-07-16T08:00:44;3.38;;;2.08;;
49834;SDS011;35729;52.090;13.162;2023-07-16T08:03:12;4.10;;;2.13;;
49834;SDS011;35729;52.090;13.162;2023-07-16T08:05:41;5.45;;;2.38;;
49834;SDS011;35729;52.090;13.162;2023-07-16T08:08:09;4.40;;;1.88;;
49834;SDS011;35729;52.090;13.162;2023-07-16T08:10:42;3.53;;;2.00;;
49834;SDS011;35729;52.090;13.162;2023-07-16T08:15:39;5.18;;;1.80;;
49834;SDS011;35729;52.090;13.162;2023-07-16T08:18:07;5.03;;;2.45;;
49834;SDS011;35729;52.090;13.162;2023-07-16T08:20:36;3.70;;;1.98;;
49834;SDS011;35729;52.090;13.162;2023-07-16T08:23:06;3.55;;;2.10;;
49834;SDS011;35729;52.090;13.162;2023-07-16T08:25:34;3.65;;;2.08;;
49834;SDS011;35729;52.090;13.162;2023-07-16T08:28:05;3.55;;;1.88;;
49834;SDS011;35729;52.090;13.162;2023-07-16T08:30:34;5.95;;;2.00;;
49834;SDS011;35729;52.090;13.162;2023-07-16T08:33:02;2.78;;;2.05;;
49834;SDS011;35729;52.090;13.162;2023-07-16T08:35:31;5.22;;;2.03;;
49834;SDS011;35729;52.090;13.162;2023-07-16T08:37:59;3.83;;;1.95;;
49834;SDS011;35729;52.090;13.162;2023-07-16T08:40:28;4.82;;;2.58;;
49834;SDS011;35729;52.090;13.162;2023-07-16T08:42:56;4.35;;;1.73;;
49834;SDS011;35729;52.090;13.162;2023-07-16T08:45:28;4.07;;;1.83;;
49834;SDS011;35729;52.090;13.162;2023-07-16T08:47:57;3.55;;;1.75;;
49834;SDS011;35729;52.090;13.162;2023-07-16T08:50:26;2.28;;;1.55;;
49834;SDS011;35729;52.090;13.162;2023-07-16T08:52:55;2.97;;;1.95;;
49834;SDS011;35729;52.090;13.162;2023-07-16T08:55:24;6.30;;;2.40;;
49834;SDS011;35729;52.090;13.162;2023-07-16T08:57:53;2.47;;;1.88;;
49834;SDS011;35729;52.090;13.162;2023-07-16T09:00:21;3.72;;;1.75;;
49834;SDS011;35729;52.090;13.162;2023-07-16T09:02:54;3.15;;;1.70;;
49834;SDS011;35729;52.090;13.162;2023-07-16T09:05:23;4.15;;;1.95;;
49834;SDS011;35729;52.090;13.162;2023-07-16T09:07:58;3.53;;;2.33;;
49834;SDS011;35729;52.090;13.162;2023-07-16T09:10:26;2.40;;;1.73;;
49834;SDS011;35729;52.090;13.162;2023-07-16T09:12:57;4.78;;;2.50;;
49834;SDS011;35729;52.090;13.162;2023-07-16T09:15:26;2.85;;;1.95;;
49834;SDS011;35729;52.090;13.162;2023-07-16T09:17:59;4.15;;;1.90;;
49834;SDS011;35729;52.090;13.162;2023-07-16T09:20:28;2.35;;;1.67;;
49834;SDS011;35729;52.090;13.162;2023-07-16T09:22:57;3.35;;;1.60;;
49834;SDS011;35729;52.090;13.162;2023-07-16T09:25:26;3.28;;;1.90;;
49834;SDS011;35729;52.090;13.162;2023-07-16T09:27:55;2.45;;;1.70;;
49834;SDS011;35729;52.090;13.162;2023-07-16T09:30:25;4.18;;;1.85;;
49834;SDS011;35729;52.090;13.162;2023-07-16T09:33:08;3.15;;;1.67;;
49834;SDS011;35729;52.090;13.162;2023-07-16T09:35:38;7.72;;;1.95;;
49834;SDS011;35729;52.090;13.162;2023-07-16T09:38:07;2.85;;;1.50;;
49834;SDS011;35729;52.090;13.162;2023-07-16T09:40:36;4.20;;;1.48;;
49834;SDS011;35729;52.090;13.162;2023-07-16T09:43:07;3.72;;;1.38;;
49834;SDS011;35729;52.090;13.162;2023-07-16T09:45:37;3.38;;;1.40;;
49834;SDS011;35729;52.090;13.162;2023-07-16T09:48:08;3.50;;;1.50;;
49834;SDS011;35729;52.090;13.162;2023-07-16T09:50:37;4.05;;;1.55;;
49834;SDS011;35729;52.090;13.162;2023-07-16T09:53:11;5.22;;;1.95;;
49834;SDS011;35729;52.090;13.162;2023-07-16T09:55:40;2.17;;;1.10;;
49834;SDS011;35729;52.090;13.162;2023-07-16T09:58:09;2.60;;;1.60;;
49834;SDS011;35729;52.090;13.162;2023-07-16T10:00:39;4.07;;;2.55;;
49834;SDS011;35729;52.090;13.162;2023-07-16T10:03:12;4.10;;;1.63;;
49834;SDS011;35729;52.090;13.162;2023-07-16T10:05:40;5.35;;;1.55;;
49834;SDS011;35729;52.090;13.162;2023-07-16T10:08:15;5.00;;;1.33;;
49834;SDS011;35729;52.090;13.162;2023-07-16T10:10:45;1.85;;;1.30;;
49834;SDS011;35729;52.090;13.162;2023-07-16T10:13:16;3.85;;;1.55;;
49834;SDS011;35729;52.090;13.162;2023-07-16T10:15:52;4.10;;;1.70;;
49834;SDS011;35729;52.090;13.162;2023-07-16T10:18:27;5.40;;;1.30;;
49834;SDS011;35729;52.090;13.162;2023-07-16T10:21:02;4.20;;;1.33;;
49834;SDS011;35729;52.090;13.162;2023-07-16T10:23:38;6.60;;;1.50;;
49834;SDS011;35729;52.090;13.162;2023-07-16T10:26:09;6.35;;;1.80;;
49834;SDS011;35729;52.090;13.162;2023-07-16T10:28:38;3.22;;;1.40;;
49834;SDS011;35729;52.090;13.162;2023-07-16T10:31:16;3.05;;;1.58;;
49834;SDS011;35729;52.090;13.162;2023-07-16T10:33:58;3.10;;;1.65;;
49834;SDS011;35729;52.090;13.162;2023-07-16T10:36:29;3.63;;;1.60;;
49834;SDS011;35729;52.090;13.162;2023-07-16T10:39:07;4.10;;;1.50;;
49834;SDS011;35729;52.090;13.162;2023-07-16T10:41:35;4.60;;;1.67;;
49834;SDS011;35729;52.090;13.162;2023-07-16T10:44:04;5.65;;;1.52;;
49834;SDS011;35729;52.090;13.162;2023-07-16T10:46:36;3.05;;;1.50;;
49834;SDS011;35729;52.090;13.162;2023-07-16T10:49:07;3.25;;;1.42;;
49834;SDS011;35729;52.090;13.162;2023-07-16T10:51:35;5.32;;;1.55;;
49834;SDS011;35729;52.090;13.162;2023-07-16T10:54:04;3.40;;;1.50;;
49834;SDS011;35729;52.090;13.162;2023-07-16T10:56:34;2.83;;;1.55;;
49834;SDS011;35729;52.090;13.162;2023-07-16T10:59:04;5.07;;;1.13;;
49834;SDS011;35729;52.090;13.162;2023-07-16T11:01:33;5.18;;;1.67;;
49834;SDS011;35729;52.090;13.162;2023-07-16T11:04:01;3.55;;;1.50;;
49834;SDS011;35729;52.090;13.162;2023-07-16T11:06:32;4.68;;;1.58;;
49834;SDS011;35729;52.090;13.162;2023-07-16T11:09:05;1.65;;;0.98;;
49834;SDS011;35729;52.090;13.162;2023-07-16T11:14:03;19.23;;;2.25;;
49834;SDS011;35729;52.090;13.162;2023-07-16T11:16:33;5.50;;;1.48;;
49834;SDS011;35729;52.090;13.162;2023-07-16T11:19:03;4.05;;;1.35;;
49834;SDS011;35729;52.090;13.162;2023-07-16T11:21:35;3.38;;;1.33;;
49834;SDS011;35729;52.090;13.162;2023-07-16T11:24:08;3.83;;;1.00;;
49834;SDS011;35729;52.090;13.162;2023-07-16T11:26:37;4.82;;;1.42;;
49834;SDS011;35729;52.090;13.162;2023-07-16T11:29:14;3.42;;;1.50;;
49834;SDS011;35729;52.090;13.162;2023-07-16T11:31:43;2.65;;;1.27;;
49834;SDS011;35729;52.090;13.162;2023-07-16T11:34:19;3.35;;;1.27;;
49834;SDS011;35729;52.090;13.162;2023-07-16T11:36:51;4.22;;;1.50;;
49834;SDS011;35729;52.090;13.162;2023-07-16T11:39:19;5.00;;;1.67;;
49834;SDS011;35729;52.090;13.162;2023-07-16T11:41:57;4.38;;;1.70;;
49834;SDS011;35729;52.090;13.162;2023-07-16T11:44:25;3.78;;;1.48;;
49834;SDS011;35729;52.090;13.162;2023-07-16T11:46:59;4.80;;;1.55;;
49834;SDS011;35729;52.090;13.162;2023-07-16T11:49:27;3.22;;;1.60;;
49834;SDS011;35729;52.090;13.162;2023-07-16T11:51:58;4.30;;;2.05;;
49834;SDS011;35729;52.090;13.162;2023-07-16T11:54:27;3.22;;;1.42;;
49834;SDS011;35729;52.090;13.162;2023-07-16T11:56:55;3.25;;;1.30;;
49834;SDS011;35729;52.090;13.162;2023-07-16T11:59:24;3.15;;;1.30;;
49834;SDS011;35729;52.090;13.162;2023-07-16T12:01:52;3.90;;;1.52;;
49834;SDS011;35729;52.090;13.162;2023-07-16T12:04:21;4.95;;;1.48;;
49834;SDS011;35729;52.090;13.162;2023-07-16T12:06:49;3.38;;;1.40;;
49834;SDS011;35729;52.090;13.162;2023-07-16T12:09:20;4.30;;;1.58;;
49834;SDS011;35729;52.090;13.162;2023-07-16T12:11:48;3.58;;;1.30;;
49834;SDS011;35729;52.090;13.162;2023-07-16T12:14:17;1.92;;;1.05;;
49834;SDS011;35729;52.090;13.162;2023-07-16T12:16:45;4.63;;;1.55;;
49834;SDS011;35729;52.090;13.162;2023-07-16T12:19:14;4.25;;;1.48;;
49834;SDS011;35729;52.090;13.162;2023-07-16T12:21:42;1.70;;;1.02;;
49834;SDS011;35729;52.090;13.162;2023-07-16T12:24:11;2.55;;;1.20;;
49834;SDS011;35729;52.090;13.162;2023-07-16T12:26:42;3.08;;;1.27;;
49834;SDS011;35729;52.090;13.162;2023-07-16T12:29:11;5.55;;;1.30;;
49834;SDS011;35729;52.090;13.162;2023-07-16T12:31:39;4.30;;;1.20;;
49834;SDS011;35729;52.090;13.162;2023-07-16T12:34:07;4.82;;;1.85;;
49834;SDS011;35729;52.090;13.162;2023-07-16T12:36:36;4.63;;;1.02;;
49834;SDS011;35729;52.090;13.162;2023-07-16T12:39:04;4.55;;;1.45;;
49834;SDS011;35729;52.090;13.162;2023-07-16T12:41:33;3.72;;;1.30;;
49834;SDS011;35729;52.090;13.162;2023-07-16T12:44:04;2.28;;;1.08;;
49834;SDS011;35729;52.090;13.162;2023-07-16T12:46:32;3.65;;;1.20;;
49834;SDS011;35729;52.090;13.162;2023-07-16T12:49:01;2.72;;;1.17;;
49834;SDS011;35729;52.090;13.162;2023-07-16T12:51:29;4.15;;;1.33;;
49834;SDS011;35729;52.090;13.162;2023-07-16T12:53:58;2.47;;;1.10;;
49834;SDS011;35729;52.090;13.162;2023-07-16T12:56:26;3.92;;;1.20;;
49834;SDS011;35729;52.090;13.162;2023-07-16T12:58:56;5.32;;;1.63;;
49834;SDS011;35729;52.090;13.162;2023-07-16T13:01:27;4.93;;;1.27;;
49834;SDS011;35729;52.090;13.162;2023-07-16T13:03:55;3.72;;;1.52;;
49834;SDS011;35729;52.090;13.162;2023-07-16T13:06:24;2.78;;;1.13;;
49834;SDS011;35729;52.090;13.162;2023-07-16T13:08:52;3.30;;;1.20;;
49834;SDS011;35729;52.090;13.162;2023-07-16T13:11:21;1.98;;;1.10;;
49834;SDS011;35729;52.090;13.162;2023-07-16T13:13:49;3.13;;;1.35;;
49834;SDS011;35729;52.090;13.162;2023-07-16T13:16:18;4.22;;;1.52;;
49834;SDS011;35729;52.090;13.162;2023-07-16T13:18:49;3.10;;;1.05;;
49834;SDS011;35729;52.090;13.162;2023-07-16T13:21:17;2.17;;;1.15;;
49834;SDS011;35729;52.090;13.162;2023-07-16T13:23:46;4.35;;;1.30;;
49834;SDS011;35729;52.090;13.162;2023-07-16T13:26:14;3.60;;;1.05;;
49834;SDS011;35729;52.090;13.162;2023-07-16T13:28:43;2.38;;;1.13;;
49834;SDS011;35729;52.090;13.162;2023-07-16T13:31:11;3.08;;;1.15;;
49834;SDS011;35729;52.090;13.162;2023-07-16T13:33:39;2.78;;;1.40;;
49834;SDS011;35729;52.090;13.162;2023-07-16T13:36:10;3.83;;;1.23;;
49834;SDS011;35729;52.090;13.162;2023-07-16T13:38:39;3.08;;;1.17;;
49834;SDS011;35729;52.090;13.162;2023-07-16T13:41:07;3.58;;;1.25;;
49834;SDS011;35729;52.090;13.162;2023-07-16T13:43:36;3.40;;;1.38;;
49834;SDS011;35729;52.090;13.162;2023-07-16T13:46:04;4.05;;;1.25;;
49834;SDS011;35729;52.090;13.162;2023-07-16T13:48:33;3.17;;;1.60;;
49834;SDS011;35729;52.090;13.162;2023-07-16T13:51:01;3.67;;;1.33;;
49834;SDS011;35729;52.090;13.162;2023-07-16T13:53:32;2.95;;;1.23;;
49834;SDS011;35729;52.090;13.162;2023-07-16T13:56:01;4.72;;;1.70;;
49834;SDS011;35729;52.090;13.162;2023-07-16T13:58:29;19.33;;;1.90;;
49834;SDS011;35729;52.090;13.162;2023-07-16T14:00:57;2.35;;;1.10;;
49834;SDS011;35729;52.090;13.162;2023-07-16T14:03:26;2.03;;;1.20;;
49834;SDS011;35729;52.090;13.162;2023-07-16T14:05:54;3.58;;;1.23;;
49834;SDS011;35729;52.090;13.162;2023-07-16T14:08:23;2.55;;;1.35;;
49834;SDS011;35729;52.090;13.162;2023-07-16T14:10:55;2.55;;;1.50;;
49834;SDS011;35729;52.090;13.162;2023-07-16T14:13:23;2.63;;;1.27;;
49834;SDS011;35729;52.090;13.162;2023-07-16T14:15:52;4.35;;;1.50;;
49834;SDS011;35729;52.090;13.162;2023-07-16T14:18:20;2.58;;;1.17;;
49834;SDS011;35729;52.090;13.162;2023-07-16T14:20:49;3.42;;;1.38;;
49834;SDS011;35729;52.090;13.162;2023-07-16T14:23:17;3.00;;;1.17;;
49834;SDS011;35729;52.090;13.162;2023-07-16T14:25:46;2.75;;;1.30;;
49834;SDS011;35729;52.090;13.162;2023-07-16T14:28:17;3.33;;;1.10;;
49834;SDS011;35729;52.090;13.162;2023-07-16T14:30:45;2.80;;;1.23;;
49834;SDS011;35729;52.090;13.162;2023-07-16T14:33:14;2.25;;;1.30;;
49834;SDS011;35729;52.090;13.162;2023-07-16T14:35:42;2.92;;;1.40;;
49834;SDS011;35729;52.090;13.162;2023-07-16T14:38:11;2.53;;;1.30;;
49834;SDS011;35729;52.090;13.162;2023-07-16T14:40:39;4.78;;;1.20;;
49834;SDS011;35729;52.090;13.162;2023-07-16T14:43:08;3.33;;;1.67;;
49834;SDS011;35729;52.090;13.162;2023-07-16T14:45:39;7.07;;;1.30;;
49834;SDS011;35729;52.090;13.162;2023-07-16T14:48:07;4.88;;;1.40;;
49834;SDS011;35729;52.090;13.162;2023-07-16T14:50:36;3.83;;;2.13;;
49834;SDS011;35729;52.090;13.162;2023-07-16T14:53:04;4.00;;;1.50;;